Terminal Aerodrome Forecast
Issued by NWS

Home | Current Version | Previous Version | Text Only | Print | Product List | Glossary On
Versions: 1 2 3 4 5 6 7 8 9 10 11 12 13 14 15 16 17 18 19 20 21 22 23
000
FTUS41 KILN 140200 AAB
TAFLCK
TAF AMD
KLCK 140211Z 1402/1424 25005KT P6SM VCSH BKN050
     FM140600 24003KT 5SM BR BKN025
     FM141300 22009KT P6SM VCSH SCT040 BKN100
     FM142100 26009KT P6SM VCTS BKN040CB=

USA.gov is the U.S. government's official web portal to all federal, state and local government web resources and services.